Currently 93°F in Riverside (Presidential Park), California, USA
93°F
95°F / 62°F
6 mph W
0.00"
Tuesday, October 17, 2017 3:23 PM PDT

Riverside (Presidential Park), California Weather Summary
Last 36 Hours

Temperature Winds Hourly Humidity Dewpoint
Time Report Norm Report Norm Max Gusts Precip. Rpt. Norm Rpt. Norm Pressure
1Tue 03:23 PM  93.4°F  82°F  6 mph W  6 mph  12 mph  0.00"  7%  34%  17°F  50°F  29.91"
Tue 03:00 PM  94.5°F  81°F  7 mph SW  6 mph  12 mph  0.00"  6%  35%  15°F  50°F  29.91"
2Tue 02:50 PM  95.0°F  81°F  7 mph W  5 mph  10 mph  ----  6%  35%  16°F  50°F  29.91"
Tue 02:00 PM  93.6°F  80°F  7 mph W  5 mph  10 mph  0.00"  6%  36%  14°F  50°F  29.93"
Tue 01:00 PM  93.1°F  79°F  2 mph W  4 mph  6 mph  0.00"  7%  39%  18°F  51°F  29.96"
Tue 12:00 PM  87.3°F  77°F  1 mph W  4 mph  6 mph  0.00"  12%  44%  27°F  52°F  29.99"
Tue 11:00 AM  82.4°F  74°F  1 mph W  3 mph  7 mph  0.00"  16%  51%  30°F  54°F  30.01"
Tue 10:00 AM  77.7°F  70°F  3 mph NW  2 mph  3 mph  0.00"  26%  59%  39°F  55°F  30.02"
Tue 09:00 AM  68.9°F  64°F  calm  1 mph  4 mph  0.00"  36%  71%  40°F  54°F  30.03"
Tue 08:00 AM  63.5°F  60°F  calm  1 mph  3 mph  0.00"  40%  76%  38°F  53°F  30.01"
3Tue 07:10 AM  61.5°F  60°F  calm  1 mph  3 mph  ----  39%  76%  36°F  52°F  30.00"
Tue 07:00 AM  62.0°F  59°F  calm  1 mph  3 mph  0.00"  40%  76%  36°F  52°F  30.00"
Tue 06:00 AM  63.1°F  60°F  calm  1 mph  2 mph  0.00"  38%  75%  36°F  52°F  29.99"
Tue 05:00 AM  63.9°F  60°F  calm  1 mph  none  0.00"  37%  74%  36°F  52°F  29.98"
Tue 04:00 AM  64.7°F  61°F  calm  1 mph  none  0.00"  38%  74%  37°F  52°F  29.98"
Tue 03:00 AM  65.8°F  61°F  calm  1 mph  4 mph  0.00"  34%  73%  35°F  52°F  30.00"
Tue 02:00 AM  66.8°F  62°F  calm  1 mph  4 mph  0.00"  33%  72%  36°F  53°F  30.01"
Tue 01:00 AM  66.2°F  63°F  calm  1 mph  none  0.00"  36%  71%  37°F  53°F  30.02"
Tue 12:00 AM  66.9°F  64°F  calm  1 mph  2 mph  0.00"  34%  69%  37°F  53°F  30.02"
Mon 11:00 PM  69.1°F  65°F  calm  1 mph  4 mph  0.00"  32%  67%  37°F  53°F  30.03"
Mon 10:00 PM  71.0°F  67°F  calm  1 mph  3 mph  0.00"  31%  63%  38°F  54°F  30.03"
Mon 09:00 PM  73.8°F  69°F  calm  2 mph  4 mph  0.00"  29%  60%  39°F  54°F  30.02"
Mon 08:00 PM  81.6°F  71°F  calm  3 mph  4 mph  0.00"  20%  55%  35°F  54°F  30.01"
Mon 07:00 PM  85.9°F  74°F  1 mph W  4 mph  9 mph  0.00"  15%  50%  31°F  53°F  29.99"
Mon 06:00 PM  90.3°F  77°F  2 mph SW  6 mph  13 mph  0.00"  12%  44%  29°F  52°F  29.97"
Mon 05:00 PM  94.4°F  80°F  10 mph SW  7 mph  13 mph  0.00"  8%  38%  22°F  51°F  29.96"
Mon 04:00 PM  96.1°F  82°F  2 mph NW  6 mph  10 mph  0.00"  7%  35%  19°F  50°F  29.98"
Mon 03:00 PM  94.9°F  81°F  3 mph W  5 mph  10 mph  0.00"  7%  36%  19°F  50°F  29.98"
Mon 02:00 PM  94.9°F  80°F  1 mph W  5 mph  9 mph  0.00"  7%  37%  19°F  50°F  30.00"
Mon 01:00 PM  97.4°F  79°F  5 mph NE  4 mph  6 mph  0.00"  5%  40%  13°F  52°F  30.02"
Mon 12:00 PM  94.4°F  77°F  2 mph SE  4 mph  7 mph  0.00"  5%  45%  9°F  53°F  30.06"
Mon 11:00 AM  89.5°F  74°F  calm  3 mph  5 mph  0.00"  6%  52%  13°F  54°F  30.08"
Mon 10:00 AM  83.0°F  70°F  calm  2 mph  4 mph  0.00"  13%  60%  26°F  55°F  30.09"
Mon 09:00 AM  68.6°F  64°F  calm  1 mph  4 mph  0.00"  32%  72%  36°F  55°F  30.09"
Mon 08:00 AM  61.3°F  60°F  calm  1 mph  2 mph  0.00"  36%  77%  33°F  53°F  30.09"
Mon 07:00 AM  59.5°F  59°F  1 mph E  1 mph  3 mph  0.00"  38%  77%  33°F  52°F  30.08"
Mon 06:00 AM  60.8°F  60°F  calm  1 mph  4 mph  0.00"  35%  76%  32°F  52°F  30.07"
Mon 05:00 AM  61.5°F  60°F  calm  1 mph  none  0.00"  34%  75%  32°F  52°F  30.06"
Mon 04:00 AM  62.5°F  61°F  calm  1 mph  2 mph  0.00"  30%  74%  29°F  52°F  30.07"

  1. Current weather data. No green row appears if the current weather data is also the high or low for the current day.
  2. High temperature for the current day.
  3. Low temperature for the current day.

The Riverside (Presidential Park), California weather pages are a service of WeatherCurrents.
Copyright ©Tue Oct 17 15:24:18 PDT 2017  WeatherCurrents. All rights reserved. - Submit questions and comments - Privacy Policy

This page automatically refreshes every 10 minutes.